Concord, CA

9:29 PM PDT on October 20, 2014 (GMT -0700)
Livermore Municipal | Change Station
CLOSE
Current Station
Airport
Location: Livermore,
Elevation: 397 ft
Nearby Weather Stations

Elev 397 ft 37.69 °N, 121.81 °W | Updated 36 minutes ago

Clear
Clear
61 °F
Feels Like 61 °F
N
10
Wind Variable Wind from West

Today
High -- | Low -- °F
--% Chance of Precip.
Yesterday
High -- | Low -- °F
Precip. -- in
7:21 AM 6:23 PM
Waning Crescent, 7% visible
Pressure 30.01 in
Visibility 10.0 miles
Clouds Clear
Dew Point 54 °F
Humidity 78%
Rainfall 0.00 in
Snow Depth Not available.
UV 0 out of 12
Pollen 1.80 out of 12
Ozone Good
PM2.5 Good
Flu Activity Sporadic
METAR KLVK 210353Z AUTO 27009KT 10SM CLR 16/12 A3001 RMK AO2 SLP160 T01610122

More Conditions Fewer Conditions

Pressure 30.01 in
Visibility 10.0 miles
Clouds Clear
Dew Point 54 °F
Humidity 78%
Rainfall 0.00 in
Snow Depth Not available.
UV 0 out of 12
Pollen 1.80 out of 12
Ozone Good
PM2.5 Good
Flu Activity Sporadic
METAR KLVK 210353Z AUTO 27009KT 10SM CLR 16/12 A3001 RMK AO2 SLP160 T01610122

More Conditions Fewer Conditions

10-Day Weather Forecast

Almanac

Astronomy

Oct. 20, 2014 Rise Set
Actual Time 7:21 AM PDT 6:23 PM PDT
Civil Twilight 6:54 AM PDT 6:49 PM PDT
Nautical Twilight 6:24 AM PDT 7:20 PM PDT
Astronomical Twilight 5:53 AM PDT 7:50 PM PDT
Moon 4:17 AM PDT (10/20) 4:46 PM PDT (10/20)
Length of Visible Light 11h 55m
Length of Day
11h 01m
Tomorrow will be 2m 17s shorter.
Waning Crescent, 7% of the Moon is Illuminated
Oct 21
Waning Crescent
Oct 23
New
Oct 30
First Quarter
Nov 6
Full
Nov 14
Last Quarter

Yesterday's Extremes

State Highs State Lows

Community

WunderPhotos

Upload Photos

1,763,608 photos uploaded!

Nearby

Air Quality

  Air Quality AQ Index Pollutant
Yesterday Good
OZONE
Yesterday Good
PM2.5
Current Good
OZONE
Current Good
PM2.5
Monday Good
PM2.5
Tuesday Good
OZONE
Wednesday Good
PM2.5
Thursday Good
PM2.5
Friday Good
PM2.5
Saturday Good
PM2.5

Snow Depth

Station Depth Elevation
Blue Lakes 0 in 8000 ft
Echo Peak 1 in 7800 ft
Forestdale Creek 0 in 8029 ft
Rubicon #2 0 in 7500 ft
Ebbetts Pass 0 in 8700 ft

Earthquake Activity

City Distance Mag. Time & Date
East Foothills, California 42 miles 2.6 8:16 AM PDT
2014-10-18
Minimum magnitude displayed is 2.5.

Coastal Water Temperatures

Place Temperature
San Francisco, CA 63.0 °F
Richmond, CA 64.0 °F
Port Chicago, CA 66.9 °F

Nearby Weather Stations